Time;durP1;ratioP1;P1;durP2;ratioP2;P2;SDS_P1;SDS_P2;PMS_P1;PMS_P2;Temp;Humidity;BMP_temperature;BMP_pressure;BME280_temperature;BME280_humidity;BME280_pressure;Samples;Min_cycle;Max_cycle;Signal;HPM_P1;HPM_P2
2022/12/27 00:01:46;;;;;;;18.67;10.85;;;;;;;4.84;56.32;94569.28;4991235;28;20034;-74
2022/12/27 00:04:12;;;;;;;17.13;12.27;;;;;;;4.64;56.72;94574.47;4993086;28;20038;-74
2022/12/27 00:06:39;;;;;;;26.30;14.20;;;;;;;4.67;56.98;94579.22;4993617;28;20029;-73
2022/12/27 00:09:05;;;;;;;28.38;15.43;;;;;;;4.75;57.22;94576.06;5008274;28;20105;-74
2022/12/27 00:11:31;;;;;;;15.80;11.80;;;;;;;4.74;57.02;94571.06;4992416;28;20424;-73
2022/12/27 00:14:01;;;;;;;17.35;11.68;;;;;;;4.59;58.08;94564.69;4992083;28;20588;-73
2022/12/27 00:16:27;;;;;;;20.00;12.77;;;;;;;4.65;58.30;94599.75;4991131;28;20564;-74
2022/12/27 00:18:53;;;;;;;15.30;11.50;;;;;;;4.59;57.82;94577.88;4991280;28;20030;-73
2022/12/27 00:21:19;;;;;;;56.92;23.17;;;;;;;4.61;58.22;94574.97;4994507;28;20026;-73
2022/12/27 00:23:48;;;;;;;25.65;14.73;;;;;;;4.73;58.08;94587.94;4984940;28;20405;-74
2022/12/27 00:26:19;;;;;;;55.25;24.02;;;;;;;4.45;58.10;94539.09;4991918;28;20030;-73
2022/12/27 00:28:45;;;;;;;28.70;16.95;;;;;;;4.67;58.09;94547.59;4992037;28;20077;-74
2022/12/27 00:31:11;;;;;;;19.38;11.70;;;;;;;4.80;58.20;94557.66;4993736;28;20064;-73
2022/12/27 00:33:38;;;;;;;16.90;12.15;;;;;;;4.74;57.85;94553.44;4994141;28;20440;-73
2022/12/27 00:36:06;;;;;;;15.30;10.25;;;;;;;4.72;57.59;94534.44;4991952;28;20046;-74
2022/12/27 00:38:32;;;;;;;19.30;11.63;;;;;;;4.95;56.80;94575.34;4992619;28;20777;-74
2022/12/27 00:40:58;;;;;;;16.65;10.27;;;;;;;4.91;57.27;94580.34;4992293;28;20042;-74
2022/12/27 00:43:23;;;;;;;17.25;11.35;;;;;;;4.67;57.36;94566.84;4992134;28;20351;-73
2022/12/27 00:45:49;;;;;;;16.25;10.25;;;;;;;4.75;57.49;94585.84;4992325;28;20037;-73
2022/12/27 00:48:14;;;;;;;21.08;13.23;;;;;;;4.74;57.56;94592.16;4993627;28;20485;-74
2022/12/27 00:50:41;;;;;;;17.15;11.10;;;;;;;4.56;57.85;94582.84;4992496;28;20041;-73
2022/12/27 00:53:07;;;;;;;17.38;11.13;;;;;;;4.61;58.56;94606.56;4986567;28;20250;-74
2022/12/27 00:55:32;;;;;;;17.23;11.73;;;;;;;4.63;58.02;94592.13;4993218;28;20038;-74
2022/12/27 00:57:58;;;;;;;16.38;11.13;;;;;;;4.71;58.21;94606.63;4991734;28;20030;-73
2022/12/27 01:00:23;;;;;;;21.60;14.32;;;;;;;3.79;59.93;94575.50;4993320;28;20021;-75
2022/12/27 01:02:49;;;;;;;23.17;14.07;;;;;;;4.32;59.34;94606.16;4997559;28;20148;-73
2022/12/27 01:05:14;;;;;;;21.23;13.27;;;;;;;4.30;58.73;94589.84;4996930;28;20029;-73
2022/12/27 01:07:40;;;;;;;19.17;12.75;;;;;;;4.47;58.42;94610.72;4991105;28;20069;-74
2022/12/27 01:10:05;;;;;;;22.25;13.60;;;;;;;4.33;58.34;94591.94;4994972;28;20108;-74
2022/12/27 01:12:31;;;;;;;22.40;11.68;;;;;;;4.33;57.99;94594.59;4997710;28;20026;-74
2022/12/27 01:14:56;;;;;;;19.85;12.15;;;;;;;4.32;57.76;94597.47;5011951;28;20057;-74
2022/12/27 01:17:22;;;;;;;14.48;10.52;;;;;;;4.37;57.55;94579.06;4994437;28;20065;-75
2022/12/27 01:19:47;;;;;;;16.05;10.52;;;;;;;4.24;58.06;94588.19;4996687;28;20399;-75
2022/12/27 01:22:13;;;;;;;21.08;14.40;;;;;;;4.10;59.05;94585.22;4994464;28;20029;-73
2022/12/27 01:24:38;;;;;;;18.08;11.80;;;;;;;4.34;57.93;94600.66;4996306;28;20030;-74
2022/12/27 01:27:03;;;;;;;20.48;11.35;;;;;;;4.34;58.05;94590.13;4991654;28;20034;-74
2022/12/27 01:29:29;;;;;;;14.75;10.13;;;;;;;4.26;57.47;94578.97;4995231;28;20184;-73
2022/12/27 01:31:54;;;;;;;20.98;11.23;;;;;;;4.45;57.35;94591.75;4996436;28;20045;-73
2022/12/27 01:34:19;;;;;;;17.13;11.63;;;;;;;4.17;58.08;94567.34;4994073;28;20033;-72
2022/12/27 01:36:45;;;;;;;20.75;13.05;;;;;;;4.15;58.85;94572.06;4994642;28;20037;-73
2022/12/27 01:39:11;;;;;;;18.50;11.95;;;;;;;4.19;58.16;94565.25;4994008;28;20437;-72
2022/12/27 01:44:40;;;;;;;21.65;13.02;;;;;;;4.39;58.32;94582.25;4994825;28;20045;-73
2022/12/27 01:47:21;;;;;;;19.30;13.13;;;;;;;4.47;58.00;94590.44;4992708;28;20034;-73
2022/12/27 01:50:07;;;;;;;21.85;13.38;;;;;;;4.41;57.78;94590.66;4993739;28;20204;-72
2022/12/27 01:52:49;;;;;;;18.75;13.18;;;;;;;4.46;57.74;94585.44;4990047;28;20120;-74
2022/12/27 01:55:20;;;;;;;17.83;12.52;;;;;;;4.42;58.46;94573.81;4992894;28;20038;-73
2022/12/27 01:57:46;;;;;;;18.05;11.27;;;;;;;4.49;58.37;94571.75;4994784;28;20036;-73
2022/12/27 02:00:12;;;;;;;18.25;12.02;;;;;;;4.55;58.22;94584.69;4994685;28;20087;-72
2022/12/27 02:02:39;;;;;;;18.23;11.65;;;;;;;4.57;58.01;94573.91;4992081;28;20100;-72
2022/12/27 02:05:05;;;;;;;16.65;10.75;;;;;;;4.51;57.83;94559.91;4992993;28;20076;-73
2022/12/27 02:07:57;;;;;;;21.10;11.93;;;;;;;4.50;58.02;94574.13;4994857;28;20711;-73
2022/12/27 02:10:24;;;;;;;23.10;12.23;;;;;;;4.36;58.42;94574.84;4993392;28;20038;-72
2022/12/27 02:12:51;;;;;;;17.73;12.35;;;;;;;4.43;57.78;94575.41;4995856;28;20018;-72
2022/12/27 02:15:16;;;;;;;24.30;13.30;;;;;;;4.27;58.53;94564.75;4994190;28;20073;-72
2022/12/27 02:17:42;;;;;;;24.70;13.68;;;;;;;4.42;58.44;94579.09;4995355;28;21474;-73
2022/12/27 02:20:14;;;;;;;20.60;12.30;;;;;;;4.41;58.19;94564.31;5006860;28;20054;-73
2022/12/27 02:26:08;;;;;;;15.52;10.93;;;;;;;4.54;57.53;94567.31;4994648;28;20075;-72
2022/12/27 02:29:05;;;;;;;17.38;10.88;;;;;;;4.53;57.64;94584.16;4991870;28;20040;-73
2022/12/27 02:31:39;;;;;;;16.25;10.95;;;;;;;4.58;57.06;94586.03;4993831;28;20053;-73
2022/12/27 02:34:14;;;;;;;15.00;10.85;;;;;;;4.20;57.80;94548.41;4993099;28;20060;-72
2022/12/27 02:36:43;;;;;;;15.45;10.38;;;;;;;4.44;58.20;94587.53;4994221;28;20053;-74
2022/12/27 02:39:11;;;;;;;16.90;10.93;;;;;;;4.35;58.09;94563.53;4992337;28;20221;-72
2022/12/27 02:53:08;;;;;;;17.35;10.07;;;;;;;4.54;57.57;94584.97;4972923;28;20531;-72
2022/12/27 02:58:48;;;;;;;16.67;10.88;;;;;;;4.40;58.36;94573.28;4991754;28;20122;-72
2022/12/27 03:04:51;;;;;;;18.70;11.50;;;;;;;4.51;58.36;94577.53;4993455;28;20046;-73
2022/12/27 03:07:33;;;;;;;16.13;10.95;;;;;;;4.34;58.38;94579.56;4994943;28;20140;-73
2022/12/27 03:16:06;;;;;;;19.85;11.32;;;;;;;4.19;58.34;94567.88;4972818;28;20606;-74
2022/12/27 03:18:53;;;;;;;21.27;11.40;;;;;;;4.49;57.69;94574.41;4972126;28;20039;-75
2022/12/27 03:27:16;;;;;;;13.57;9.73;;;;;;;4.12;58.69;94569.13;4992327;28;20080;-73
2022/12/27 03:38:45;;;;;;;16.20;11.10;;;;;;;4.02;58.51;94583.03;4993398;28;20642;-72
2022/12/27 03:44:03;;;;;;;15.82;10.00;;;;;;;3.95;58.95;94582.47;4991375;28;20413;-74
2022/12/27 03:46:33;;;;;;;14.90;9.40;;;;;;;4.04;58.92;94591.47;4992379;28;20530;-75
2022/12/27 03:49:08;;;;;;;13.90;9.32;;;;;;;4.16;58.19;94586.81;4990276;28;20905;-75
2022/12/27 03:51:38;;;;;;;14.75;9.60;;;;;;;4.00;58.82;94579.06;4994147;28;20030;-74
2022/12/27 03:54:17;;;;;;;16.67;9.95;;;;;;;3.94;58.03;94554.56;4990882;28;20455;-74
2022/12/27 03:56:42;;;;;;;15.00;9.57;;;;;;;4.06;58.49;94580.69;4993414;28;20544;-75
2022/12/27 03:59:11;;;;;;;14.55;9.13;;;;;;;3.97;58.78;94580.34;4990546;28;20046;-74
2022/12/27 04:01:36;;;;;;;15.13;9.40;;;;;;;4.11;57.85;94576.25;5007454;28;20607;-74
2022/12/27 04:04:01;;;;;;;11.70;8.63;;;;;;;3.92;58.57;94572.44;4992935;28;20394;-74
2022/12/27 04:06:27;;;;;;;15.45;8.73;;;;;;;3.95;58.64;94577.22;4991775;28;20017;-74
2022/12/27 04:36:11;;;;;;;14.55;9.82;;;;;;;4.27;58.22;94575.28;4990751;28;20040;-74
2022/12/27 04:38:36;;;;;;;14.35;10.00;;;;;;;4.37;58.24;94600.91;4993017;28;20416;-74
2022/12/27 04:55:34;;;;;;;11.57;8.23;;;;;;;4.35;57.40;94642.53;4990632;28;20428;-74
2022/12/27 04:57:59;;;;;;;13.70;8.52;;;;;;;4.28;57.51;94649.81;4980517;28;20503;-74
2022/12/27 05:03:15;;;;;;;13.18;9.48;;;;;;;4.07;58.64;94627.81;4975330;28;20045;-75
2022/12/27 05:05:43;;;;;;;13.00;9.88;;;;;;;3.94;58.77;94643.25;4973704;28;20493;-74
2022/12/27 05:16:23;;;;;;;12.73;8.40;;;;;;;4.01;59.06;94602.53;4992361;28;20520;-75
2022/12/27 05:18:48;;;;;;;14.88;8.50;;;;;;;4.10;58.79;94601.00;4989841;28;20034;-74
2022/12/27 05:21:14;;;;;;;13.80;8.95;;;;;;;3.98;59.52;94605.66;4991612;28;20053;-74
2022/12/27 05:26:26;;;;;;;12.85;8.00;;;;;;;3.92;59.73;94596.13;4990283;28;20049;-75
2022/12/27 05:28:53;;;;;;;13.52;8.93;;;;;;;4.20;58.93;94598.44;4990685;28;20070;-73
2022/12/27 05:31:21;;;;;;;15.13;9.38;;;;;;;3.89;58.96;94566.88;4988796;28;20038;-73
2022/12/27 05:33:47;;;;;;;12.38;8.98;;;;;;;3.95;59.21;94573.78;4988050;28;20034;-73
2022/12/27 05:36:13;;;;;;;14.45;9.23;;;;;;;3.83;59.31;94537.91;4990409;28;20099;-73
2022/12/27 05:38:38;;;;;;;16.42;9.43;;;;;;;3.95;59.21;94553.53;4989252;28;20160;-74
2022/12/27 05:41:05;;;;;;;15.07;8.75;;;;;;;3.86;60.03;94572.66;4988555;28;20524;-73
2022/12/27 05:43:31;;;;;;;12.52;8.80;;;;;;;3.93;60.59;94562.69;5002931;28;20034;-72
2022/12/27 05:46:03;;;;;;;16.17;9.48;;;;;;;3.71;60.69;94566.25;4992749;28;20034;-73
2022/12/27 05:48:28;;;;;;;15.70;8.70;;;;;;;3.91;60.71;94564.81;5009982;28;20049;-73
2022/12/27 05:50:54;;;;;;;15.98;9.00;;;;;;;3.73;61.10;94584.38;4995175;28;20121;-74
2022/12/27 05:53:19;;;;;;;18.40;11.50;;;;;;;3.42;62.81;94567.59;4994787;28;20382;-73
2022/12/27 05:55:55;;;;;;;12.80;9.98;;;;;;;3.76;61.49;94600.50;4994180;28;20164;-74
2022/12/27 05:58:22;;;;;;;18.20;11.77;;;;;;;3.79;61.04;94609.72;4994193;28;20546;-74
2022/12/27 06:00:47;;;;;;;15.65;11.23;;;;;;;3.89;60.58;94599.25;4992421;28;20021;-74
2022/12/27 06:03:12;;;;;;;17.92;13.15;;;;;;;3.78;60.29;94603.66;5009447;28;20029;-73
2022/12/27 06:05:38;;;;;;;25.17;17.42;;;;;;;3.87;60.33;94617.13;4994245;28;20064;-73
2022/12/27 06:08:03;;;;;;;22.90;15.10;;;;;;;3.85;60.26;94603.44;4993694;28;20212;-74
2022/12/27 06:10:29;;;;;;;17.90;13.38;;;;;;;4.10;59.81;94637.84;4994304;28;20563;-74
2022/12/27 06:12:54;;;;;;;18.05;12.55;;;;;;;4.17;59.39;94622.63;4993508;28;20053;-73
2022/12/27 06:15:20;;;;;;;19.98;12.45;;;;;;;3.82;59.99;94603.94;4994706;28;20053;-73
2022/12/27 06:17:45;;;;;;;22.58;15.60;;;;;;;3.76;60.76;94612.84;4992745;28;20038;-72
2022/12/27 06:20:11;;;;;;;20.23;12.77;;;;;;;3.99;60.07;94625.66;4993170;28;20057;-73
2022/12/27 06:22:36;;;;;;;18.70;11.93;;;;;;;3.79;60.23;94601.81;4994312;28;20509;-73
2022/12/27 06:25:02;;;;;;;18.48;12.00;;;;;;;3.95;60.22;94634.31;4994511;28;20547;-73
2022/12/27 06:27:27;;;;;;;41.45;24.20;;;;;;;2.91;63.24;94603.06;4995078;28;20014;-74
2022/12/27 06:29:52;;;;;;;32.22;20.90;;;;;;;2.58;65.97;94629.47;4993842;28;20517;-73
2022/12/27 06:32:18;;;;;;;28.77;17.42;;;;;;;3.07;63.60;94606.66;4994411;28;20037;-73
2022/12/27 06:34:44;;;;;;;30.02;20.27;;;;;;;3.06;63.19;94624.25;4993914;28;20572;-73
2022/12/27 06:37:10;;;;;;;31.80;18.30;;;;;;;3.35;62.48;94632.72;4993675;28;20812;-73
2022/12/27 06:39:35;;;;;;;32.88;23.00;;;;;;;3.39;62.24;94631.97;4994424;28;20041;-73
2022/12/27 06:42:00;;;;;;;36.63;23.60;;;;;;;3.29;62.01;94602.16;4987225;28;20220;-73
2022/12/27 06:44:26;;;;;;;32.25;19.38;;;;;;;3.59;61.87;94638.47;4994835;28;20233;-73
2022/12/27 06:46:51;;;;;;;28.15;18.10;;;;;;;3.63;61.38;94629.81;4990622;28;20091;-73
2022/12/27 06:49:17;;;;;;;28.02;18.02;;;;;;;3.64;61.17;94628.00;5008739;28;20117;-73
2022/12/27 06:51:42;;;;;;;22.90;14.45;;;;;;;3.75;61.60;94634.94;4993541;28;20691;-73
2022/12/27 06:54:08;;;;;;;16.85;10.57;;;;;;;3.84;61.26;94613.19;5008162;28;20030;-72
2022/12/27 06:56:33;;;;;;;15.30;9.57;;;;;;;3.89;62.27;94614.25;4994229;28;20373;-73
2022/12/27 06:58:58;;;;;;;20.33;13.95;;;;;;;3.93;62.17;94634.56;4992109;28;20127;-72
2022/12/27 07:01:26;;;;;;;21.55;14.15;;;;;;;3.85;62.41;94603.44;4993376;28;20045;-72
2022/12/27 07:03:54;;;;;;;24.05;15.57;;;;;;;3.70;62.43;94605.94;4995008;28;20032;-72
2022/12/27 07:06:21;;;;;;;24.30;14.40;;;;;;;3.79;63.29;94626.28;4992636;28;20021;-73
2022/12/27 07:08:48;;;;;;;24.23;15.85;;;;;;;3.68;63.82;94621.19;4995182;28;20037;-73
2022/12/27 07:11:16;;;;;;;18.98;13.55;;;;;;;3.97;62.06;94614.56;4992003;28;20049;-72
2022/12/27 07:13:43;;;;;;;23.13;15.00;;;;;;;4.09;62.01;94622.31;4995374;28;20034;-74
2022/12/27 07:16:11;;;;;;;22.77;15.60;;;;;;;4.35;61.61;94624.09;4993510;28;20049;-74
2022/12/27 07:18:37;;;;;;;22.83;14.82;;;;;;;4.27;61.57;94611.38;4992860;28;20035;-74
2022/12/27 07:21:14;;;;;;;27.83;17.67;;;;;;;4.36;62.27;94601.97;4994010;28;20729;-73
2022/12/27 07:23:39;;;;;;;29.00;17.40;;;;;;;4.33;63.26;94614.84;4991844;28;20498;-74
2022/12/27 07:26:08;;;;;;;27.08;17.17;;;;;;;4.20;63.87;94600.28;4994352;28;20044;-75
2022/12/27 07:28:34;;;;;;;25.33;16.67;;;;;;;4.02;65.06;94606.72;4991803;28;20083;-75
2022/12/27 07:31:04;;;;;;;34.42;22.35;;;;;;;4.21;64.68;94589.47;4993868;28;20030;-73
2022/12/27 07:33:29;;;;;;;37.72;22.65;;;;;;;4.32;63.90;94571.94;4994060;28;20033;-72
2022/12/27 07:35:59;;;;;;;30.98;20.77;;;;;;;4.20;64.20;94608.19;4991117;28;20107;-75
2022/12/27 07:38:25;;;;;;;39.55;27.27;;;;;;;4.02;64.70;94619.09;4994360;28;20458;-75
2022/12/27 07:40:50;;;;;;;36.97;24.40;;;;;;;4.25;63.46;94606.38;4991376;28;20030;-73
2022/12/27 07:43:16;;;;;;;36.30;24.05;;;;;;;4.24;63.22;94615.31;4992413;28;20049;-72
2022/12/27 07:45:41;;;;;;;47.88;31.88;;;;;;;3.99;64.09;94614.34;4991532;28;20035;-71
2022/12/27 07:48:07;;;;;;;41.60;26.95;;;;;;;4.18;64.11;94611.06;4994746;28;20038;-73
2022/12/27 07:50:32;;;;;;;42.15;27.67;;;;;;;4.01;64.26;94573.56;4991925;28;20030;-72
2022/12/27 07:52:57;;;;;;;41.20;27.33;;;;;;;3.84;65.78;94605.28;4992392;28;20412;-72
2022/12/27 07:55:23;;;;;;;55.70;37.00;;;;;;;3.77;66.47;94609.94;4989157;28;20062;-73
2022/12/27 07:57:48;;;;;;;60.95;34.83;;;;;;;3.37;67.27;94612.25;4993503;28;20033;-72
2022/12/27 08:00:14;;;;;;;50.13;33.72;;;;;;;3.52;67.73;94598.44;4990958;28;20018;-72
2022/12/27 08:02:40;;;;;;;44.60;32.65;;;;;;;3.94;66.24;94611.66;4992625;28;20511;-72
2022/12/27 08:05:06;;;;;;;52.53;34.03;;;;;;;3.99;65.88;94604.59;4992388;28;20038;-73
2022/12/27 08:07:32;;;;;;;44.92;29.35;;;;;;;4.04;64.76;94596.75;4994425;28;20512;-74
2022/12/27 08:09:57;;;;;;;34.05;22.92;;;;;;;4.33;63.06;94623.56;4991167;28;20021;-73
2022/12/27 08:12:22;;;;;;;47.22;33.42;;;;;;;3.69;66.19;94623.56;4992842;28;20052;-73
2022/12/27 08:14:48;;;;;;;48.85;33.00;;;;;;;3.99;65.06;94641.44;4991952;28;20162;-71
2022/12/27 08:17:21;;;;;;;49.20;32.72;;;;;;;4.32;64.98;94650.94;4990248;28;20095;-72
2022/12/27 08:19:50;;;;;;;42.65;27.63;;;;;;;4.36;64.00;94633.56;4991597;28;20033;-73
2022/12/27 08:22:15;;;;;;;39.40;24.20;;;;;;;4.58;62.90;94636.09;4993025;28;20038;-72
2022/12/27 08:24:42;;;;;;;33.13;23.45;;;;;;;4.77;61.50;94621.41;4992472;28;20029;-73
2022/12/27 08:27:08;;;;;;;34.13;23.58;;;;;;;4.92;61.45;94634.66;4992637;28;20065;-72
2022/12/27 08:29:33;;;;;;;34.25;25.17;;;;;;;4.88;62.27;94617.78;4991805;28;20149;-73
2022/12/27 08:31:59;;;;;;;40.05;27.92;;;;;;;5.09;61.19;94611.53;4992549;28;20164;-73
2022/12/27 08:34:24;;;;;;;47.00;31.15;;;;;;;5.40;61.19;94630.06;4991329;28;20034;-72
2022/12/27 08:36:50;;;;;;;42.70;30.55;;;;;;;5.04;61.23;94614.13;4992641;28;20040;-72
2022/12/27 08:39:16;;;;;;;41.15;28.88;;;;;;;5.03;62.26;94640.78;4991135;28;20026;-72
2022/12/27 08:41:41;;;;;;;45.92;29.83;;;;;;;5.20;61.57;94627.38;4991805;28;20405;-73
2022/12/27 08:44:08;;;;;;;45.47;31.80;;;;;;;5.44;59.96;94620.56;4990201;28;20161;-72
2022/12/27 08:46:33;;;;;;;43.50;30.17;;;;;;;5.71;59.33;94618.53;4993567;28;20504;-72
2022/12/27 08:48:59;;;;;;;49.38;32.08;;;;;;;5.81;59.03;94613.25;4986188;28;20790;-72
2022/12/27 08:51:24;;;;;;;48.22;33.08;;;;;;;5.50;60.67;94609.00;4992960;28;20069;-73
2022/12/27 08:53:50;;;;;;;50.38;35.60;;;;;;;5.64;60.64;94604.78;4989203;28;20646;-73
2022/12/27 08:56:15;;;;;;;48.60;34.17;;;;;;;5.89;59.81;94612.72;4994124;28;20038;-73
2022/12/27 08:58:41;;;;;;;46.70;31.88;;;;;;;6.14;58.57;94611.13;4991260;28;20061;-72
2022/12/27 09:01:08;;;;;;;50.28;35.15;;;;;;;6.28;58.53;94593.72;4991592;28;20077;-72
2022/12/27 09:03:34;;;;;;;48.70;33.33;;;;;;;6.00;59.39;94609.03;4993531;28;20025;-72
2022/12/27 09:06:17;;;;;;;46.65;32.97;;;;;;;6.31;59.18;94599.25;4992975;28;20119;-72
2022/12/27 09:08:43;;;;;;;44.45;30.20;;;;;;;6.51;58.12;94603.69;4987337;28;20073;-73
2022/12/27 09:11:13;;;;;;;40.83;27.90;;;;;;;6.56;58.01;94594.97;4989462;28;20148;-73
2022/12/27 09:13:39;;;;;;;73.13;42.63;;;;;;;6.64;57.86;94597.88;4992938;28;20589;-72
2022/12/27 09:16:10;;;;;;;48.58;32.65;;;;;;;6.63;57.52;94579.63;4990797;28;20173;-73
2022/12/27 09:18:37;;;;;;;68.93;32.17;;;;;;;6.51;58.45;94595.75;4990537;28;20034;-73
2022/12/27 09:21:05;;;;;;;63.97;31.92;;;;;;;6.75;57.60;94580.13;4993748;28;20034;-73
2022/12/27 09:23:30;;;;;;;46.20;28.88;;;;;;;6.79;58.14;94571.38;5008827;28;20045;-73
2022/12/27 09:25:56;;;;;;;46.28;31.35;;;;;;;6.95;57.00;94563.34;4997168;28;20041;-72
2022/12/27 09:28:21;;;;;;;46.35;29.33;;;;;;;6.68;57.25;94569.81;4993922;28;20045;-72
2022/12/27 09:30:46;;;;;;;43.45;27.80;;;;;;;6.62;57.52;94556.88;4996057;28;20041;-75
2022/12/27 09:33:12;;;;;;;37.38;25.67;;;;;;;6.92;56.75;94555.97;4974868;28;20049;-74
2022/12/27 09:35:37;;;;;;;36.25;24.92;;;;;;;6.80;57.62;94551.78;4990834;28;20587;-74
2022/12/27 09:38:02;;;;;;;44.25;27.55;;;;;;;6.79;56.55;94550.22;4994065;28;20579;-72
2022/12/27 09:40:28;;;;;;;50.42;28.73;;;;;;;7.14;55.99;94554.53;5009881;28;20042;-72
2022/12/27 09:43:08;;;;;;;65.30;40.42;;;;;;;6.44;57.97;94539.78;4991651;28;20177;-75
2022/12/27 09:45:41;;;;;;;66.85;37.00;;;;;;;6.83;57.13;94543.31;4994237;28;20041;-74
2022/12/27 09:48:31;;;;;;;47.53;25.98;;;;;;;6.62;57.74;94562.19;4994069;28;20038;-74
2022/12/27 09:51:02;;;;;;;35.65;23.05;;;;;;;6.70;57.14;94549.19;4992685;28;20064;-74
2022/12/27 09:53:52;;;;;;;25.48;19.45;;;;;;;6.67;56.63;94555.03;4994931;28;20033;-74
2022/12/27 09:56:27;;;;;;;34.78;20.67;;;;;;;7.15;56.14;94547.38;4995732;28;20468;-73
2022/12/27 09:59:24;;;;;;;24.77;15.35;;;;;;;7.30;54.75;94544.66;4992051;28;20797;-73
2022/12/27 10:01:49;;;;;;;24.38;14.30;;;;;;;7.41;54.43;94551.47;4991764;28;20439;-74
2022/12/27 10:04:16;;;;;;;26.65;17.55;;;;;;;7.60;54.02;94533.88;4996001;28;20491;-73
2022/12/27 10:06:48;;;;;;;33.33;19.05;;;;;;;7.12;54.40;94553.22;4994474;28;20030;-73
2022/12/27 10:09:38;;;;;;;32.22;20.30;;;;;;;7.27;54.55;94547.84;4991528;28;20042;-73
2022/12/27 10:12:13;;;;;;;29.95;18.73;;;;;;;7.51;53.95;94540.03;4994937;28;20416;-76
2022/12/27 10:15:02;;;;;;;32.38;19.27;;;;;;;7.84;52.97;94531.31;4991582;28;20392;-73
2022/12/27 10:17:44;;;;;;;30.75;20.50;;;;;;;7.94;53.14;94503.94;4995750;28;20414;-73
2022/12/27 10:20:18;;;;;;;29.67;19.40;;;;;;;8.10;52.60;94508.84;4994492;28;20026;-73
2022/12/27 10:22:53;;;;;;;29.13;21.05;;;;;;;7.45;53.48;94506.72;4993422;28;20786;-75
2022/12/27 10:25:22;;;;;;;35.05;21.52;;;;;;;7.00;54.38;94449.59;4990835;28;20046;-73
2022/12/27 10:27:52;;;;;;;32.00;19.75;;;;;;;7.91;53.28;94509.81;4987438;28;20389;-74
2022/12/27 10:30:20;;;;;;;27.55;19.80;;;;;;;7.82;53.01;94469.13;4991877;28;20030;-73
2022/12/27 10:32:46;;;;;;;27.58;19.67;;;;;;;7.89;53.22;94501.34;4990822;28;20496;-75
2022/12/27 10:35:17;;;;;;;26.92;20.13;;;;;;;8.04;53.17;94499.34;4993855;28;20128;-73
2022/12/27 10:37:44;;;;;;;27.33;19.77;;;;;;;7.95;52.92;94502.88;4993026;28;20436;-73
2022/12/27 10:40:15;;;;;;;28.33;18.52;;;;;;;8.33;51.96;94525.81;4993889;28;20116;-73
2022/12/27 10:42:55;;;;;;;25.60;19.13;;;;;;;8.36;51.90;94517.31;4992762;28;20033;-74
2022/12/27 10:45:38;;;;;;;31.98;20.25;;;;;;;8.29;52.07;94518.72;4993293;28;20187;-74
2022/12/27 10:48:19;;;;;;;32.53;20.30;;;;;;;8.46;51.81;94517.19;4994068;28;20081;-75
2022/12/27 10:50:57;;;;;;;32.80;22.15;;;;;;;8.62;51.13;94523.09;4992838;28;20545;-74
2022/12/27 10:53:47;;;;;;;38.85;24.77;;;;;;;8.65;51.04;94514.59;4993657;28;20034;-73
2022/12/27 10:56:23;;;;;;;35.58;24.25;;;;;;;8.83;50.28;94513.03;4993516;28;20524;-73
2022/12/27 10:58:51;;;;;;;41.65;27.35;;;;;;;8.19;51.89;94514.31;4991250;28;20487;-73
2022/12/27 11:01:17;;;;;;;46.97;31.38;;;;;;;7.79;53.35;94517.31;4995630;28;20492;-73
2022/12/27 11:03:43;;;;;;;44.83;31.60;;;;;;;8.12;52.68;94524.44;4995623;28;21487;-72
2022/12/27 11:06:38;;;;;;;47.78;35.00;;;;;;;7.97;52.80;94511.34;4993791;28;20287;-74
2022/12/27 11:09:25;;;;;;;47.92;32.70;;;;;;;8.16;52.21;94506.94;4980483;28;21648;-74
2022/12/27 11:12:09;;;;;;;49.05;32.92;;;;;;;8.45;52.16;94494.41;4992110;28;20044;-74
2022/12/27 11:14:36;;;;;;;45.40;32.28;;;;;;;8.80;51.04;94482.59;4990904;28;20518;-73
2022/12/27 11:17:06;;;;;;;44.47;28.33;;;;;;;8.64;51.29;94475.09;4992982;28;20065;-75
2022/12/27 11:19:31;;;;;;;37.17;26.38;;;;;;;8.35;52.08;94489.22;4992895;28;20038;-73
2022/12/27 11:21:57;;;;;;;37.88;26.63;;;;;;;8.60;51.92;94477.53;4992868;28;20021;-73
2022/12/27 11:24:22;;;;;;;39.67;28.05;;;;;;;8.33;51.54;94488.72;4992381;28;20057;-73
2022/12/27 11:26:56;;;;;;;35.58;25.20;;;;;;;8.11;52.90;94486.56;4993527;28;20097;-74
2022/12/27 11:29:25;;;;;;;37.65;27.70;;;;;;;8.39;52.33;94492.88;4992814;28;20041;-74
2022/12/27 11:31:51;;;;;;;38.42;26.73;;;;;;;8.73;51.66;94491.94;4987420;28;20145;-74
2022/12/27 11:34:32;;;;;;;47.35;33.25;;;;;;;8.50;52.10;94498.88;4992143;28;20034;-73
2022/12/27 11:37:13;;;;;;;55.38;36.38;;;;;;;8.39;51.56;94468.25;4991244;28;20030;-74
2022/12/27 11:39:42;;;;;;;53.67;35.92;;;;;;;8.86;50.87;94494.69;4995438;28;20156;-73
2022/12/27 11:42:22;;;;;;;55.20;37.20;;;;;;;8.64;50.76;94470.59;4991270;28;20037;-74
2022/12/27 11:45:17;;;;;;;52.95;37.50;;;;;;;8.77;51.06;94500.91;5005777;28;20522;-73
2022/12/27 11:48:04;;;;;;;53.58;38.72;;;;;;;8.94;50.83;94504.69;4982495;28;20469;-74
2022/12/27 11:50:41;;;;;;;52.85;36.53;;;;;;;9.31;50.73;94509.22;4989905;28;20126;-73
2022/12/27 11:53:35;;;;;;;55.47;36.42;;;;;;;9.50;49.93;94493.28;4988098;28;20030;-73
2022/12/27 11:56:25;;;;;;;52.85;36.35;;;;;;;9.74;49.60;94503.78;4993025;28;20060;-75
2022/12/27 11:59:18;;;;;;;41.88;31.85;;;;;;;9.91;49.66;94514.69;4992914;28;20046;-74
2022/12/27 12:02:02;;;;;;;43.38;31.83;;;;;;;10.07;48.80;94500.06;4993235;28;20102;-75
2022/12/27 12:04:57;;;;;;;42.00;31.63;;;;;;;9.89;48.49;94498.22;5007951;28;20375;-75
2022/12/27 12:07:56;;;;;;;39.10;29.88;;;;;;;9.74;49.25;94506.44;4994539;28;20046;-75
2022/12/27 12:10:45;;;;;;;45.47;29.08;;;;;;;9.46;49.92;94513.53;4992425;28;20037;-73
2022/12/27 12:13:30;;;;;;;48.55;30.38;;;;;;;9.70;49.92;94502.78;4990201;28;20100;-73
2022/12/27 12:16:04;;;;;;;46.15;30.40;;;;;;;9.94;50.79;94506.09;4991733;28;20056;-73
2022/12/27 12:18:59;;;;;;;39.88;27.60;;;;;;;10.05;50.20;94510.19;4990948;28;20041;-75
2022/12/27 12:22:01;;;;;;;39.00;27.08;;;;;;;10.10;49.48;94501.31;4992088;28;20046;-75
2022/12/27 12:24:32;;;;;;;40.97;27.50;;;;;;;10.09;49.32;94503.19;4961895;28;20534;-72
2022/12/27 12:27:09;;;;;;;53.53;32.90;;;;;;;10.27;49.47;94504.97;4988230;28;20125;-73
2022/12/27 12:29:59;;;;;;;53.78;36.53;;;;;;;10.51;48.59;94496.09;4992537;28;20507;-73
2022/12/27 12:32:34;;;;;;;58.65;38.20;;;;;;;10.31;49.70;94500.69;4992361;28;20500;-74
2022/12/27 12:35:03;;;;;;;;;;;;;;;10.47;49.66;94498.53;5008062;28;20050;-73
2022/12/27 12:38:13;;;;;;;47.40;34.65;;;;;;;10.35;50.39;94502.75;5005895;28;19964;-73
2022/12/27 12:41:08;;;;;;;36.92;25.85;;;;;;;10.27;50.81;94507.63;4992154;28;20152;-73
2022/12/27 12:43:37;;;;;;;;;;;;;;;10.30;51.01;94515.06;4991878;28;20049;-73
2022/12/27 12:46:12;;;;;;;22.85;16.48;;;;;;;10.28;51.10;94514.53;4991161;28;20504;-73
2022/12/27 12:48:50;;;;;;;23.58;15.13;;;;;;;10.33;50.66;94511.78;4992978;28;20084;-73
2022/12/27 12:51:54;;;;;;;20.60;13.25;;;;;;;10.40;50.66;94515.97;4992141;28;20042;-73
2022/12/27 12:54:38;;;;;;;15.52;11.02;;;;;;;10.34;51.09;94509.94;4957695;28;20160;-73
2022/12/27 12:57:11;;;;;;;16.83;9.93;;;;;;;10.35;51.23;94511.50;4990115;28;20139;-73
2022/12/27 12:59:58;;;;;;;11.73;7.85;;;;;;;10.38;51.19;94524.22;4976193;28;20031;-74
2022/12/27 13:02:42;;;;;;;13.15;8.48;;;;;;;10.36;50.84;94528.25;4985838;28;20042;-75
2022/12/27 13:05:26;;;;;;;9.70;7.03;;;;;;;10.45;50.91;94526.53;4978664;28;20034;-73
2022/12/27 13:08:17;;;;;;;9.38;6.03;;;;;;;10.59;50.61;94530.75;4981719;28;20030;-74
2022/12/27 13:10:49;;;;;;;11.48;6.82;;;;;;;10.53;50.66;94531.13;4992340;28;20042;-74
2022/12/27 13:13:20;;;;;;;8.15;5.28;;;;;;;10.53;51.25;94544.44;4991330;28;20037;-73
2022/12/27 13:16:28;;;;;;;6.63;4.35;;;;;;;10.47;51.15;94549.06;4992456;28;20046;-73
2022/12/27 13:19:10;;;;;;;7.65;4.40;;;;;;;10.28;51.83;94551.75;4989420;28;20611;-73
2022/12/27 13:21:51;;;;;;;7.93;3.95;;;;;;;10.31;51.73;94567.16;4991409;28;20018;-75
2022/12/27 13:24:32;;;;;;;9.18;4.47;;;;;;;10.18;52.19;94565.22;4993219;28;20061;-73
2022/12/27 13:27:34;;;;;;;7.75;4.57;;;;;;;10.16;51.92;94562.09;4981996;28;20500;-74
2022/12/27 13:30:18;;;;;;;16.25;3.95;;;;;;;10.10;51.86;94576.53;4989543;28;20054;-74